Time;durP1;ratioP1;P1;durP2;ratioP2;P2;SDS_P1;SDS_P2;PMS_P1;PMS_P2;Temp;Humidity;BMP_temperature;BMP_pressure;BME280_temperature;BME280_humidity;BME280_pressure;Samples;Min_cycle;Max_cycle;Signal;HPM_P1;HPM_P2
2022/01/24 00:00:34;;;;;;;4.95;3.03;;;7.70;98.40;;;;;;5061742;28;20430;-48
2022/01/24 00:03:00;;;;;;;4.80;2.72;;;7.70;98.30;;;;;;5054692;28;20207;-48
2022/01/24 00:05:26;;;;;;;6.72;2.97;;;7.70;98.10;;;;;;5061227;28;20115;-48
2022/01/24 00:07:51;;;;;;;6.78;3.10;;;7.70;98.40;;;;;;5059754;28;20063;-48
2022/01/24 00:10:21;;;;;;;6.18;3.17;;;7.70;98.30;;;;;;5053141;28;20534;-48
2022/01/24 00:18:25;;;;;;;10.30;3.95;;;7.70;98.30;;;;;;5059971;28;20048;-48
2022/01/24 00:29:03;;;;;;;6.82;3.55;;;7.70;98.40;;;;;;5058815;28;20417;-47
2022/01/24 00:31:29;;;;;;;6.30;3.28;;;7.70;98.40;;;;;;5057286;28;20045;-48
2022/01/24 00:33:54;;;;;;;7.30;3.55;;;7.70;98.40;;;;;;5061698;28;20301;-48
2022/01/24 00:36:20;;;;;;;10.57;3.80;;;7.70;98.40;;;;;;5060617;28;20032;-48
2022/01/24 00:38:45;;;;;;;10.05;3.33;;;7.70;98.40;;;;;;5059363;28;20021;-48
2022/01/24 00:41:14;;;;;;;8.20;3.92;;;7.60;98.30;;;;;;5055609;28;20036;-48
2022/01/24 00:46:57;;;;;;;4.68;2.88;;;7.60;98.40;;;;;;5065840;28;20389;-47
2022/01/24 00:54:48;;;;;;;8.52;3.83;;;7.60;98.40;;;;;;5057561;28;20033;-48
2022/01/24 00:57:14;;;;;;;6.82;3.65;;;7.60;98.30;;;;;;5056625;28;20039;-48
2022/01/24 00:59:39;;;;;;;7.30;3.90;;;7.60;98.40;;;;;;5059108;28;20021;-48
2022/01/24 01:02:06;;;;;;;6.53;3.80;;;7.60;98.60;;;;;;5055847;28;20029;-48
2022/01/24 01:07:33;;;;;;;7.47;3.70;;;7.60;98.40;;;;;;5060892;28;20021;-48
2022/01/24 01:18:17;;;;;;;7.47;3.38;;;7.60;98.50;;;;;;5061300;28;20055;-48
2022/01/24 01:23:30;;;;;;;9.85;4.35;;;7.60;98.40;;;;;;5056754;28;20086;-47
2022/01/24 01:25:58;;;;;;;10.40;3.88;;;7.60;98.40;;;;;;5056603;28;20052;-48
2022/01/24 01:28:25;;;;;;;9.95;4.00;;;7.60;98.40;;;;;;5057263;28;20104;-48
2022/01/24 01:30:55;;;;;;;13.75;3.28;;;7.60;98.40;;;;;;5060638;28;20031;-48
2022/01/24 01:33:38;;;;;;;6.75;3.50;;;7.60;98.50;;;;;;5059296;28;20021;-48
2022/01/24 01:52:23;;;;;;;8.40;4.22;;;7.50;98.60;;;;;;5063164;28;20079;-47
2022/01/24 01:52:35;;;;;;;6.75;3.97;;;7.50;98.50;;;;;;5058387;28;20124;-48
2022/01/24 01:55:36;;;;;;;6.70;2.80;;;7.60;98.40;;;;;;5061342;28;20092;-48
2022/01/24 01:57:59;;;;;;;6.68;2.95;;;7.50;98.40;;;;;;5061395;28;20450;-48
2022/01/24 02:00:24;;;;;;;6.15;3.13;;;7.50;98.20;;;;;;5062019;28;20021;-49
2022/01/24 02:02:50;;;;;;;5.90;3.35;;;7.50;98.20;;;;;;5059293;28;20029;-48
2022/01/24 02:05:15;;;;;;;6.82;3.50;;;7.50;98.50;;;;;;5061911;28;20496;-48
2022/01/24 02:07:48;;;;;;;6.13;3.40;;;7.50;98.40;;;;;;5063812;28;20021;-48
2022/01/24 02:10:15;;;;;;;6.30;3.00;;;7.50;98.40;;;;;;5060768;28;20064;-48
2022/01/24 02:12:41;;;;;;;6.68;3.13;;;7.50;98.30;;;;;;5058327;28;20044;-48
2022/01/24 02:15:07;;;;;;;6.75;3.75;;;7.50;97.90;;;;;;5060539;28;20029;-47
2022/01/24 02:18:13;;;;;;;5.60;2.92;;;7.50;98.30;;;;;;5060351;28;20392;-48
2022/01/24 02:21:05;;;;;;;6.60;3.53;;;7.50;98.40;;;;;;5062868;28;20029;-48
2022/01/24 02:25:57;;;;;;;6.07;3.15;;;7.50;98.40;;;;;;5060863;28;20462;-48
2022/01/24 02:28:26;;;;;;;4.72;3.00;;;7.50;98.40;;;;;;5056734;28;20078;-48
2022/01/24 02:33:18;;;;;;;3.13;2.38;;;7.50;98.30;;;;;;5061743;28;20457;-48
2022/01/24 02:35:44;;;;;;;6.65;3.00;;;7.50;98.30;;;;;;5063546;28;20119;-48
2022/01/24 02:39:04;;;;;;;5.30;3.10;;;7.40;97.90;;;;;;5062059;28;20024;-48
2022/01/24 02:49:14;;;;;;;4.20;2.85;;;7.40;98.10;;;;;;5062690;28;20035;-48
2022/01/24 02:51:46;;;;;;;6.82;3.22;;;7.40;98.20;;;;;;5060043;28;20086;-47
2022/01/24 02:54:24;;;;;;;6.90;3.35;;;7.40;98.30;;;;;;5061291;28;20099;-47
2022/01/24 02:56:50;;;;;;;6.53;3.65;;;7.40;98.00;;;;;;5054794;28;20033;-48
2022/01/24 02:59:16;;;;;;;6.72;3.17;;;7.40;98.10;;;;;;5059739;28;20023;-48
2022/01/24 03:01:43;;;;;;;3.25;2.67;;;7.40;98.10;;;;;;5061624;28;20020;-48
2022/01/24 03:04:09;;;;;;;7.35;4.47;;;7.40;98.00;;;;;;5058271;28;20039;-48
2022/01/24 03:06:35;;;;;;;12.43;3.47;;;7.40;97.90;;;;;;5060353;28;20017;-48
2022/01/24 03:09:01;;;;;;;8.65;3.08;;;7.40;97.90;;;;;;5059885;28;20040;-48
2022/01/24 03:11:38;;;;;;;5.35;3.20;;;7.30;97.60;;;;;;5050180;28;20406;-48
2022/01/24 03:14:03;;;;;;;9.20;3.67;;;7.30;97.50;;;;;;5063498;28;20028;-48
2022/01/24 03:16:29;;;;;;;4.63;3.42;;;7.30;97.90;;;;;;5062212;28;20460;-48
2022/01/24 03:18:55;;;;;;;7.05;3.38;;;7.30;97.80;;;;;;5060644;28;20048;-48
2022/01/24 03:21:20;;;;;;;7.43;3.45;;;7.40;97.90;;;;;;5060794;28;20029;-48
2022/01/24 03:23:46;;;;;;;8.30;3.75;;;7.30;97.60;;;;;;5058679;28;20025;-48
2022/01/24 03:26:11;;;;;;;5.68;3.70;;;7.30;97.80;;;;;;5058959;28;20048;-47
2022/01/24 03:28:37;;;;;;;7.35;3.13;;;7.40;98.10;;;;;;5058594;28;20400;-48
2022/01/24 03:31:02;;;;;;;5.82;3.13;;;7.40;98.00;;;;;;5062599;28;20120;-47
2022/01/24 03:33:28;;;;;;;6.35;4.13;;;7.40;98.00;;;;;;5060288;28;20067;-47
2022/01/24 03:35:53;;;;;;;8.60;4.25;;;7.40;98.00;;;;;;5058880;28;20025;-48
2022/01/24 03:38:19;;;;;;;8.07;4.13;;;7.40;98.10;;;;;;5062439;28;20432;-47
2022/01/24 03:40:45;;;;;;;9.85;3.67;;;7.40;97.80;;;;;;5060844;28;20079;-48
2022/01/24 03:43:11;;;;;;;7.10;4.35;;;7.40;97.80;;;;;;5054963;28;20075;-48
2022/01/24 03:45:45;;;;;;;8.30;4.30;;;7.40;98.20;;;;;;5057019;28;20327;-48
2022/01/24 03:48:29;;;;;;;6.53;3.72;;;7.40;98.10;;;;;;5059987;28;20029;-48
2022/01/24 03:50:55;;;;;;;6.82;3.95;;;7.40;98.00;;;;;;5062496;28;20021;-48
2022/01/24 03:53:21;;;;;;;7.43;3.95;;;7.40;97.90;;;;;;5058731;28;20033;-48
2022/01/24 03:55:47;;;;;;;5.95;3.88;;;7.40;98.10;;;;;;5060967;28;20342;-47
2022/01/24 03:58:13;;;;;;;5.93;4.15;;;7.40;98.10;;;;;;5055790;28;20029;-48
2022/01/24 04:00:39;;;;;;;9.57;4.65;;;7.40;98.20;;;;;;5059524;28;20028;-48
2022/01/24 04:03:04;;;;;;;9.48;3.92;;;7.40;98.10;;;;;;5058874;28;20087;-47
2022/01/24 04:05:30;;;;;;;8.48;4.50;;;7.40;98.50;;;;;;5059183;28;20366;-48
2022/01/24 04:07:55;;;;;;;6.47;4.20;;;7.40;98.10;;;;;;5057774;28;20067;-47
2022/01/24 04:10:22;;;;;;;11.68;4.47;;;7.40;98.00;;;;;;5060180;28;20064;-48
2022/01/24 04:12:50;;;;;;;8.65;4.20;;;7.40;98.10;;;;;;5055014;28;20055;-47
2022/01/24 04:17:59;;;;;;;9.52;5.25;;;7.40;98.20;;;;;;5057468;28;20040;-47
2022/01/24 04:23:17;;;;;;;11.27;4.90;;;7.40;98.30;;;;;;5058633;28;20035;-48
2022/01/24 04:25:43;;;;;;;9.07;5.18;;;7.40;98.30;;;;;;5060493;28;20480;-48
2022/01/24 04:28:08;;;;;;;7.40;4.25;;;7.40;98.20;;;;;;5058175;28;20032;-48
2022/01/24 04:30:34;;;;;;;9.60;4.20;;;7.40;98.20;;;;;;5059495;28;20057;-48
2022/01/24 04:32:59;;;;;;;9.40;4.22;;;7.40;98.20;;;;;;5058855;28;20040;-48
2022/01/24 04:35:25;;;;;;;8.48;4.50;;;7.40;98.30;;;;;;5058514;28;20041;-47
2022/01/24 04:37:51;;;;;;;10.48;5.22;;;7.40;98.20;;;;;;5061722;28;20398;-48
2022/01/24 04:40:16;;;;;;;13.70;4.80;;;7.40;98.30;;;;;;5059476;28;20027;-48
2022/01/24 04:42:50;;;;;;;7.18;3.97;;;7.40;98.40;;;;;;5055571;28;20187;-48
2022/01/24 04:56:05;;;;;;;7.15;4.05;;;7.40;98.40;;;;;;5087840;28;20369;-47
2022/01/24 04:58:31;;;;;;;8.43;4.70;;;7.40;98.10;;;;;;5086802;28;20440;-48
2022/01/24 05:00:56;;;;;;;7.53;4.65;;;7.40;98.40;;;;;;5087670;28;20024;-48
2022/01/24 05:03:22;;;;;;;8.73;4.88;;;7.40;98.20;;;;;;5086499;28;20024;-48
2022/01/24 05:05:49;;;;;;;10.57;5.57;;;7.40;98.10;;;;;;5086751;28;20477;-47
2022/01/24 05:08:15;;;;;;;14.18;5.35;;;7.30;97.90;;;;;;5087157;28;20024;-48
2022/01/24 05:10:56;;;;;;;6.22;4.10;;;7.30;98.40;;;;;;5086612;28;20047;-48
2022/01/24 05:23:24;;;;;;;8.77;3.40;;;7.40;98.10;;;;;;5088855;28;20039;-47
2022/01/24 05:24:19;;;;;;;5.85;3.97;;;7.40;98.40;;;;;;5088394;28;20044;-48
2022/01/24 05:26:45;;;;;;;7.28;4.30;;;7.40;98.40;;;;;;5091208;28;20020;-47
2022/01/24 05:29:10;;;;;;;8.50;4.45;;;7.40;98.40;;;;;;5083706;28;20047;-48
2022/01/24 05:31:36;;;;;;;12.60;5.00;;;7.40;98.40;;;;;;5058649;28;20036;-47
2022/01/24 05:34:01;;;;;;;6.60;4.68;;;7.40;98.40;;;;;;5058994;28;20080;-48
2022/01/24 05:36:27;;;;;;;10.00;4.68;;;7.40;98.30;;;;;;5063088;28;20711;-47
2022/01/24 05:38:53;;;;;;;7.82;4.50;;;7.40;98.50;;;;;;5064663;28;20361;-48
2022/01/24 05:41:18;;;;;;;10.63;4.85;;;7.40;98.50;;;;;;5061973;28;20029;-48
2022/01/24 05:43:44;;;;;;;8.70;4.95;;;7.40;98.50;;;;;;5058113;28;20040;-48
2022/01/24 05:46:09;;;;;;;10.32;5.20;;;7.40;98.30;;;;;;5065024;28;20031;-47
2022/01/24 05:48:35;;;;;;;9.82;4.38;;;7.40;98.40;;;;;;5055733;28;20036;-48
2022/01/24 05:51:01;;;;;;;6.93;4.40;;;7.40;98.40;;;;;;5067947;28;20024;-48
2022/01/24 05:53:26;;;;;;;10.30;5.43;;;7.40;98.50;;;;;;5064301;28;20029;-48
2022/01/24 05:55:53;;;;;;;8.10;4.88;;;7.40;98.50;;;;;;5058890;28;20097;-48
2022/01/24 05:58:19;;;;;;;8.63;5.00;;;7.40;98.40;;;;;;5058801;28;20033;-48
2022/01/24 06:00:45;;;;;;;9.40;4.65;;;7.40;98.40;;;;;;5059960;28;20028;-48
2022/01/24 06:03:10;;;;;;;10.07;4.93;;;7.40;98.30;;;;;;5056348;28;20560;-48
2022/01/24 06:05:36;;;;;;;9.60;4.90;;;7.40;98.50;;;;;;5061595;28;20039;-48
2022/01/24 06:08:02;;;;;;;9.48;4.55;;;7.40;98.40;;;;;;5061515;28;20457;-47
2022/01/24 06:10:27;;;;;;;8.52;4.38;;;7.30;98.40;;;;;;5066533;28;20088;-48
2022/01/24 06:12:53;;;;;;;7.43;4.38;;;7.40;98.50;;;;;;5062806;28;20044;-48
2022/01/24 06:15:19;;;;;;;9.13;4.55;;;7.40;98.50;;;;;;5054286;28;20356;-47
2022/01/24 06:17:44;;;;;;;8.93;4.28;;;7.40;98.40;;;;;;5062662;28;20553;-48
2022/01/24 06:20:11;;;;;;;6.65;4.55;;;7.30;98.40;;;;;;5058106;28;20082;-48
2022/01/24 06:22:37;;;;;;;11.38;4.68;;;7.40;98.00;;;;;;5061605;28;20021;-48
2022/01/24 06:25:05;;;;;;;9.35;4.05;;;7.40;98.20;;;;;;5062825;28;20028;-48
2022/01/24 06:27:31;;;;;;;7.18;4.30;;;7.40;98.10;;;;;;5063542;28;20020;-49
2022/01/24 06:29:56;;;;;;;7.80;4.60;;;7.40;97.90;;;;;;5056735;28;20043;-47
2022/01/24 06:32:22;;;;;;;6.80;4.00;;;7.30;97.10;;;;;;5062785;28;20032;-48
2022/01/24 06:34:47;;;;;;;7.15;4.55;;;7.30;97.40;;;;;;5058242;28;20442;-48
2022/01/24 06:37:13;;;;;;;8.60;4.80;;;7.30;97.40;;;;;;5060167;28;20059;-48
2022/01/24 06:39:39;;;;;;;10.45;4.55;;;7.30;97.30;;;;;;5060428;28;20020;-48
2022/01/24 06:42:21;;;;;;;8.73;4.82;;;7.30;97.30;;;;;;5063637;28;20468;-48
2022/01/24 06:44:48;;;;;;;9.07;3.60;;;7.30;97.20;;;;;;5056437;28;20036;-48
2022/01/24 06:47:13;;;;;;;13.60;4.38;;;7.30;97.20;;;;;;5063438;28;20036;-48
2022/01/24 06:49:39;;;;;;;8.48;4.93;;;7.30;97.30;;;;;;5064858;28;20082;-48
2022/01/24 06:52:08;;;;;;;13.05;4.97;;;7.30;97.30;;;;;;5062928;28;20040;-48
2022/01/24 06:54:35;;;;;;;6.85;4.60;;;7.30;97.40;;;;;;5061440;28;20119;-48
2022/01/24 06:57:02;;;;;;;5.97;3.83;;;7.30;97.40;;;;;;5067420;28;20063;-49
2022/01/24 06:59:28;;;;;;;6.97;3.67;;;7.30;97.40;;;;;;5068051;28;20020;-49
2022/01/24 07:01:53;;;;;;;7.00;4.20;;;7.30;97.40;;;;;;5063478;28;20025;-48
2022/01/24 07:04:19;;;;;;;7.90;4.25;;;7.30;97.50;;;;;;5078571;28;20405;-48
2022/01/24 07:06:44;;;;;;;6.80;4.18;;;7.30;97.50;;;;;;5070734;28;20031;-47
2022/01/24 07:09:10;;;;;;;8.75;3.65;;;7.30;97.50;;;;;;5067961;28;20013;-48
2022/01/24 07:11:36;;;;;;;7.25;3.92;;;7.30;97.50;;;;;;5066012;28;20500;-48
2022/01/24 07:14:06;;;;;;;5.53;3.88;;;7.30;97.50;;;;;;5067929;28;20056;-48
2022/01/24 07:16:49;;;;;;;6.15;4.05;;;7.30;97.60;;;;;;5069478;28;20044;-48
2022/01/24 07:19:15;;;;;;;11.80;4.20;;;7.30;97.60;;;;;;5070962;28;20041;-48
2022/01/24 07:21:40;;;;;;;6.80;3.22;;;7.30;97.60;;;;;;5064506;28;20508;-48
2022/01/24 07:24:06;;;;;;;5.82;3.63;;;7.30;97.60;;;;;;5073877;28;20028;-48
2022/01/24 07:26:31;;;;;;;6.72;3.63;;;7.30;98.00;;;;;;5070241;28;20029;-48
2022/01/24 07:28:58;;;;;;;5.80;3.33;;;7.30;97.70;;;;;;5071582;28;20115;-48
2022/01/24 07:31:23;;;;;;;7.93;3.15;;;7.30;97.60;;;;;;5068622;28;20115;-48
2022/01/24 07:33:51;;;;;;;5.95;2.75;;;7.30;97.70;;;;;;5069427;28;20115;-48
2022/01/24 07:36:16;;;;;;;4.90;3.35;;;7.30;97.70;;;;;;5068343;28;20020;-48
2022/01/24 07:38:42;;;;;;;20.15;3.35;;;7.30;97.70;;;;;;5072485;28;20020;-48
2022/01/24 07:41:08;;;;;;;6.72;2.83;;;7.30;97.70;;;;;;5070673;28;20449;-48
2022/01/24 07:43:34;;;;;;;3.20;2.22;;;7.30;97.70;;;;;;5069599;28;20327;-48
2022/01/24 07:45:59;;;;;;;4.50;2.55;;;7.30;97.70;;;;;;5065911;28;20411;-48
2022/01/24 07:48:25;;;;;;;3.75;2.45;;;7.30;97.70;;;;;;5061208;28;20020;-48
2022/01/24 07:50:52;;;;;;;4.55;1.83;;;7.30;97.70;;;;;;5061544;28;20070;-48
2022/01/24 07:53:19;;;;;;;5.25;2.50;;;7.30;97.50;;;;;;5066032;28;20040;-48
2022/01/24 07:55:45;;;;;;;2.90;2.20;;;7.30;97.60;;;;;;5062377;28;20029;-48
2022/01/24 07:58:11;;;;;;;2.33;1.95;;;7.30;97.80;;;;;;5060218;28;20027;-48
2022/01/24 08:00:37;;;;;;;5.75;2.58;;;7.30;97.80;;;;;;5058102;28;20025;-48
2022/01/24 08:03:04;;;;;;;4.53;1.98;;;7.30;97.80;;;;;;5056408;28;20115;-48
2022/01/24 08:05:30;;;;;;;5.90;2.17;;;7.30;97.80;;;;;;5063895;28;20027;-48
2022/01/24 08:07:56;;;;;;;4.15;2.03;;;7.30;97.70;;;;;;5073408;28;20048;-48
2022/01/24 08:10:21;;;;;;;4.78;2.20;;;7.30;97.50;;;;;;5058297;28;20481;-48
2022/01/24 08:12:47;;;;;;;4.32;1.80;;;7.30;97.80;;;;;;5061886;28;20107;-48
2022/01/24 08:15:16;;;;;;;3.80;2.33;;;7.30;97.70;;;;;;5058651;28;20579;-48
2022/01/24 08:17:44;;;;;;;3.22;1.95;;;7.30;97.60;;;;;;5069473;28;20192;-48
2022/01/24 08:20:11;;;;;;;3.15;1.80;;;7.30;97.70;;;;;;5058627;28;20044;-48
2022/01/24 08:22:37;;;;;;;4.82;2.45;;;7.30;97.70;;;;;;5062901;28;20031;-48
2022/01/24 08:25:04;;;;;;;7.78;2.95;;;7.30;97.70;;;;;;5065755;28;20039;-48
2022/01/24 08:27:34;;;;;;;4.13;2.22;;;7.40;97.90;;;;;;5069459;28;20032;-48
2022/01/24 08:30:04;;;;;;;3.25;2.33;;;7.40;97.80;;;;;;5065842;28;20063;-49
2022/01/24 08:32:29;;;;;;;5.40;2.00;;;7.40;97.70;;;;;;5063765;28;20457;-48
2022/01/24 08:34:56;;;;;;;2.63;2.05;;;7.40;97.60;;;;;;5066502;28;20024;-48
2022/01/24 08:37:22;;;;;;;3.67;2.03;;;7.40;97.60;;;;;;5066526;28;20495;-48
2022/01/24 08:39:48;;;;;;;6.57;2.63;;;7.30;97.40;;;;;;5064223;28;20047;-48
2022/01/24 08:42:18;;;;;;;4.05;2.60;;;7.30;97.50;;;;;;5068337;28;20103;-48
2022/01/24 08:47:31;;;;;;;3.95;2.67;;;7.30;97.30;;;;;;5071140;28;20032;-48
2022/01/24 08:49:58;;;;;;;4.80;2.80;;;7.40;97.50;;;;;;5067731;28;20024;-48
2022/01/24 08:52:25;;;;;;;3.47;2.47;;;7.30;97.70;;;;;;5071378;28;20040;-48
2022/01/24 08:54:52;;;;;;;6.22;2.53;;;7.40;97.50;;;;;;5073444;28;20074;-48
2022/01/24 08:57:21;;;;;;;4.68;2.63;;;7.40;97.50;;;;;;5075313;28;20035;-48
2022/01/24 08:59:48;;;;;;;6.28;3.10;;;7.40;97.40;;;;;;5065323;28;20068;-48
2022/01/24 09:02:13;;;;;;;6.43;2.65;;;7.40;97.30;;;;;;5072977;28;20040;-48
2022/01/24 09:04:39;;;;;;;7.07;3.22;;;7.40;97.60;;;;;;5069845;28;20124;-48
2022/01/24 09:07:05;;;;;;;6.15;3.13;;;7.50;97.60;;;;;;5072009;28;20028;-48
2022/01/24 09:09:35;;;;;;;4.28;2.83;;;7.50;97.60;;;;;;5078968;28;20361;-48
2022/01/24 09:12:04;;;;;;;5.43;2.55;;;7.50;97.80;;;;;;5070629;28;20072;-48
2022/01/24 09:14:29;;;;;;;7.38;3.63;;;7.50;98.00;;;;;;5071058;28;20536;-48
2022/01/24 09:16:56;;;;;;;5.43;3.60;;;7.60;98.00;;;;;;5068603;28;20115;-48
2022/01/24 09:19:22;;;;;;;6.40;3.10;;;7.50;97.90;;;;;;5072468;28;20024;-48
2022/01/24 09:21:47;;;;;;;8.23;3.67;;;7.60;98.20;;;;;;5071323;28;20108;-48
2022/01/24 09:24:13;;;;;;;5.57;2.95;;;7.60;98.30;;;;;;5072182;28;20115;-48
2022/01/24 09:26:39;;;;;;;7.40;3.70;;;7.70;98.40;;;;;;5071586;28;20025;-48
2022/01/24 09:29:05;;;;;;;5.03;3.25;;;7.70;98.40;;;;;;5064005;28;20025;-48
2022/01/24 09:31:30;;;;;;;6.55;3.45;;;7.70;98.30;;;;;;5064741;28;20142;-48
2022/01/24 09:33:56;;;;;;;6.22;3.30;;;7.70;98.30;;;;;;5058942;28;20030;-48
2022/01/24 09:36:23;;;;;;;7.97;3.95;;;7.70;98.50;;;;;;5071780;28;20111;-48
2022/01/24 09:38:49;;;;;;;5.50;2.92;;;7.80;98.40;;;;;;5072693;28;20025;-48
2022/01/24 09:41:15;;;;;;;6.10;3.25;;;7.80;98.60;;;;;;5071894;28;20021;-48
2022/01/24 09:43:43;;;;;;;4.57;2.53;;;7.80;98.70;;;;;;5073141;28;20112;-48
2022/01/24 09:46:10;;;;;;;6.70;3.15;;;7.80;99.00;;;;;;5069867;28;20116;-48
2022/01/24 09:48:38;;;;;;;5.03;3.28;;;7.90;99.10;;;;;;5066904;28;20035;-48
2022/01/24 09:51:04;;;;;;;7.53;3.97;;;7.90;99.30;;;;;;5069061;28;20035;-48
2022/01/24 09:53:30;;;;;;;5.18;3.15;;;8.00;99.10;;;;;;5068550;28;20037;-48
2022/01/24 09:55:59;;;;;;;6.53;3.67;;;8.00;99.30;;;;;;5068659;28;20032;-48
2022/01/24 09:58:24;;;;;;;7.88;3.50;;;8.00;99.10;;;;;;5070641;28;20024;-48
2022/01/24 10:00:50;;;;;;;4.88;3.30;;;8.00;99.40;;;;;;5064461;28;20036;-48
2022/01/24 10:03:16;;;;;;;5.80;3.60;;;8.10;99.40;;;;;;5060713;28;20031;-48
2022/01/24 10:05:43;;;;;;;7.70;3.53;;;8.00;99.20;;;;;;5062346;28;20037;-48
2022/01/24 10:08:15;;;;;;;7.50;3.30;;;8.10;99.30;;;;;;5061515;28;20051;-48
2022/01/24 10:10:47;;;;;;;4.53;3.10;;;8.10;99.40;;;;;;5064194;28;20094;-48
2022/01/24 10:19:16;;;;;;;8.75;3.45;;;8.10;99.40;;;;;;5088394;28;20048;-48
2022/01/24 10:21:47;;;;;;;5.35;3.33;;;8.10;99.50;;;;;;5088431;28;20463;-48
2022/01/24 10:24:38;;;;;;;7.45;3.33;;;8.10;99.40;;;;;;5091978;28;20087;-48
2022/01/24 10:27:16;;;;;;;7.32;3.40;;;8.10;99.60;;;;;;5086430;28;20036;-48
2022/01/24 10:29:49;;;;;;;5.57;3.03;;;8.10;99.40;;;;;;5093643;28;20256;-48
2022/01/24 10:32:27;;;;;;;5.45;3.00;;;8.10;99.60;;;;;;5091263;28;20032;-48
2022/01/24 10:34:53;;;;;;;6.20;3.92;;;8.10;99.50;;;;;;5088416;28;20516;-48
2022/01/24 10:37:23;;;;;;;6.18;3.75;;;8.10;99.50;;;;;;5088522;28;20562;-49
2022/01/24 10:39:58;;;;;;;4.10;3.28;;;8.10;99.60;;;;;;5090423;28;20098;-48
2022/01/24 10:44:54;;;;;;;6.45;3.90;;;8.20;99.70;;;;;;5091319;28;20028;-48
2022/01/24 10:47:28;;;;;;;6.22;3.53;;;8.10;99.60;;;;;;5084039;28;20170;-48
2022/01/24 10:49:54;;;;;;;5.47;2.97;;;8.20;99.60;;;;;;5080142;28;20036;-48
2022/01/24 10:52:26;;;;;;;7.38;3.47;;;8.20;99.90;;;;;;5089906;28;20112;-48
2022/01/24 10:55:11;;;;;;;6.88;2.85;;;8.20;99.60;;;;;;5076385;28;20044;-48
2022/01/24 10:57:40;;;;;;;6.13;2.65;;;8.20;99.90;;;;;;5061450;28;20112;-48
2022/01/24 11:00:28;;;;;;;8.85;3.75;;;8.20;99.90;;;;;;5064155;28;20068;-48
2022/01/24 11:02:57;;;;;;;4.05;1.95;;;8.30;99.90;;;;;;5073643;28;20028;-48
2022/01/24 11:05:26;;;;;;;4.97;2.67;;;8.30;99.90;;;;;;5068149;28;20028;-48
2022/01/24 11:07:56;;;;;;;5.68;2.67;;;8.40;99.90;;;;;;5071920;28;20103;-48
2022/01/24 11:10:30;;;;;;;5.07;3.08;;;8.50;99.90;;;;;;5074218;28;20502;-48
2022/01/24 11:12:57;;;;;;;7.40;3.80;;;8.50;99.90;;;;;;5075214;28;20047;-48
2022/01/24 11:15:25;;;;;;;5.72;3.22;;;8.50;99.90;;;;;;5070485;28;20434;-48
2022/01/24 11:17:53;;;;;;;6.30;3.92;;;8.50;99.90;;;;;;5072353;28;20351;-48
2022/01/24 11:20:20;;;;;;;5.70;3.25;;;8.60;99.90;;;;;;5066406;28;20029;-48
2022/01/24 11:22:52;;;;;;;6.57;3.38;;;8.60;99.90;;;;;;5068225;28;20350;-48
2022/01/24 11:25:18;;;;;;;5.43;3.30;;;8.60;99.90;;;;;;5065140;28;20020;-48
2022/01/24 11:27:48;;;;;;;7.57;4.28;;;8.50;99.90;;;;;;5071345;28;20454;-48
2022/01/24 11:30:23;;;;;;;6.78;3.97;;;8.60;99.90;;;;;;5067924;28;20051;-48
2022/01/24 11:32:49;;;;;;;4.55;2.17;;;8.60;99.90;;;;;;5071694;28;20041;-48
2022/01/24 11:35:50;;;;;;;5.20;3.03;;;8.60;99.90;;;;;;5070636;28;20032;-49
2022/01/24 11:38:35;;;;;;;5.45;3.10;;;8.60;99.90;;;;;;5068431;28;20442;-48
2022/01/24 11:41:32;;;;;;;9.48;3.33;;;8.50;99.90;;;;;;5068251;28;20031;-48
2022/01/24 11:44:07;;;;;;;7.13;4.03;;;8.50;99.90;;;;;;5066190;28;20023;-48
2022/01/24 11:46:47;;;;;;;8.27;4.03;;;8.50;99.90;;;;;;5065645;28;20081;-48
2022/01/24 11:49:17;;;;;;;7.20;4.13;;;8.50;99.90;;;;;;5068316;28;20103;-48
2022/01/24 11:51:49;;;;;;;6.75;3.85;;;8.50;99.90;;;;;;5072202;28;20128;-48
2022/01/24 11:57:36;;;;;;;5.93;3.10;;;8.50;99.90;;;;;;5066520;28;20033;-48
2022/01/24 12:00:05;;;;;;;3.28;2.17;;;8.60;99.90;;;;;;5063057;28;20021;-48
2022/01/24 12:02:43;;;;;;;6.53;3.40;;;8.60;99.90;;;;;;5062282;28;20399;-48
2022/01/24 12:05:17;;;;;;;4.28;2.13;;;8.60;99.90;;;;;;5062979;28;20496;-49
2022/01/24 12:07:50;;;;;;;6.22;3.28;;;8.60;99.90;;;;;;5065477;28;20036;-48
2022/01/24 12:10:40;;;;;;;6.97;4.22;;;8.60;99.90;;;;;;5063741;28;20449;-48
2022/01/24 12:13:37;;;;;;;2.83;1.63;;;8.50;99.90;;;;;;5065651;28;20093;-48
2022/01/24 12:16:09;;;;;;;7.50;4.13;;;8.60;99.90;;;;;;5065000;28;20528;-48
2022/01/24 12:18:35;;;;;;;8.30;4.70;;;8.60;99.90;;;;;;5065357;28;20020;-48
2022/01/24 12:21:11;;;;;;;9.40;4.57;;;8.60;99.90;;;;;;5070649;28;20039;-48
2022/01/24 12:24:00;;;;;;;6.88;3.42;;;8.70;99.90;;;;;;5067096;28;20017;-48
2022/01/24 12:26:41;;;;;;;21.17;5.68;;;8.70;99.90;;;;;;5072983;28;20123;-48
2022/01/24 12:29:25;;;;;;;14.35;6.00;;;8.70;99.90;;;;;;5073395;28;20075;-48
2022/01/24 12:31:58;;;;;;;9.93;5.10;;;8.70;99.90;;;;;;5070057;28;20040;-48
2022/01/24 12:34:33;;;;;;;10.57;5.55;;;8.70;99.90;;;;;;5062329;28;20039;-48
2022/01/24 12:37:04;;;;;;;12.85;5.25;;;8.70;99.90;;;;;;5068277;28;20078;-48
2022/01/24 12:39:33;;;;;;;11.95;5.82;;;8.70;99.90;;;;;;5069717;28;20021;-48
2022/01/24 12:42:06;;;;;;;10.68;5.72;;;8.70;99.90;;;;;;5066791;28;20028;-48
2022/01/24 12:47:05;;;;;;;10.70;5.45;;;8.70;99.90;;;;;;5058978;28;20460;-48
2022/01/24 12:49:31;;;;;;;11.73;5.50;;;8.70;99.90;;;;;;5069210;28;20033;-48
2022/01/24 12:52:09;;;;;;;12.30;6.60;;;8.60;99.90;;;;;;5071836;28;20405;-48
2022/01/24 12:54:44;;;;;;;9.23;4.97;;;8.70;99.90;;;;;;5069654;28;20039;-48
2022/01/24 12:57:14;;;;;;;11.57;6.03;;;8.60;99.90;;;;;;5063448;28;20115;-48
2022/01/24 12:59:54;;;;;;;13.07;4.70;;;8.60;99.90;;;;;;5068957;28;20025;-48
2022/01/24 13:02:27;;;;;;;;;;;8.60;99.90;;;;;;5066974;28;20032;-48
2022/01/24 13:05:01;;;;;;;9.30;4.47;;;8.60;99.90;;;;;;5069472;28;19912;-48
2022/01/24 13:07:26;;;;;;;11.20;6.22;;;8.70;99.90;;;;;;5065321;28;20059;-48
2022/01/24 13:10:03;;;;;;;1.52;1.33;;;8.70;99.90;;;;;;5068531;28;20048;-48
2022/01/24 13:12:29;;;;;;;7.50;3.47;;;8.70;99.90;;;;;;5060179;28;20072;-48
2022/01/24 13:14:58;;;;;;;9.52;5.20;;;8.80;99.90;;;;;;5062710;28;20052;-48
2022/01/24 13:23:14;;;;;;;13.50;5.97;;;8.70;99.90;;;;;;5050378;28;20445;-49
2022/01/24 13:25:40;;;;;;;10.45;5.57;;;8.70;99.90;;;;;;5067201;28;20032;-48
2022/01/24 13:28:08;;;;;;;9.95;6.07;;;8.70;99.90;;;;;;5069631;28;20029;-48
2022/01/24 13:30:38;;;;;;;10.57;6.07;;;8.70;99.90;;;;;;5070813;28;20043;-49
2022/01/24 13:33:09;;;;;;;11.05;5.85;;;8.70;99.90;;;;;;5071279;28;20351;-48
2022/01/24 13:35:40;;;;;;;10.70;4.85;;;8.80;99.90;;;;;;5068792;28;20570;-48
2022/01/24 13:38:09;;;;;;;9.20;5.47;;;8.80;99.90;;;;;;5073845;28;20033;-48
2022/01/24 13:40:36;;;;;;;10.95;5.68;;;8.80;99.90;;;;;;5070937;28;20035;-48
2022/01/24 13:43:04;;;;;;;9.27;4.28;;;8.70;99.90;;;;;;5076920;28;20028;-48
2022/01/24 13:45:39;;;;;;;12.38;5.97;;;8.80;99.90;;;;;;5069056;28;20047;-49
2022/01/24 13:48:14;;;;;;;11.27;5.35;;;8.80;99.90;;;;;;5068437;28;20068;-48
2022/01/24 13:50:48;;;;;;;10.98;5.88;;;8.80;99.80;;;;;;5065300;28;20419;-48
2022/01/24 13:53:28;;;;;;;12.75;6.82;;;8.70;99.60;;;;;;5064827;28;20047;-48
2022/01/24 13:55:54;;;;;;;10.07;5.45;;;8.70;99.90;;;;;;5067249;28;20070;-48
2022/01/24 13:58:24;;;;;;;12.13;6.28;;;8.80;99.90;;;;;;5064946;28;20182;-48
2022/01/24 14:01:01;;;;;;;12.65;5.78;;;8.80;99.80;;;;;;5070971;28;20070;-48
2022/01/24 14:03:27;;;;;;;9.45;4.07;;;8.80;99.90;;;;;;5071509;28;20036;-48
2022/01/24 14:06:15;;;;;;;11.85;4.63;;;8.80;99.80;;;;;;5068869;28;20040;-48
2022/01/24 14:08:41;;;;;;;18.33;6.20;;;8.80;99.70;;;;;;5071692;28;20060;-48
2022/01/24 14:11:13;;;;;;;10.65;5.32;;;8.90;99.70;;;;;;5077642;28;20035;-48
2022/01/24 14:13:39;;;;;;;10.32;5.28;;;8.80;99.90;;;;;;5075055;28;20098;-48
2022/01/24 14:16:20;;;;;;;8.77;4.53;;;8.80;99.90;;;;;;5070832;28;20024;-49
2022/01/24 14:18:59;;;;;;;11.05;4.93;;;8.80;99.80;;;;;;5068246;28;20366;-48
2022/01/24 14:21:25;;;;;;;14.73;5.60;;;8.80;99.90;;;;;;5062350;28;20047;-49
2022/01/24 14:23:51;;;;;;;24.48;6.30;;;8.80;99.90;;;;;;5062744;28;20457;-48
2022/01/24 14:26:25;;;;;;;9.40;5.13;;;8.80;99.90;;;;;;5064505;28;20398;-48
2022/01/24 14:29:27;;;;;;;8.07;4.03;;;8.70;99.90;;;;;;5062231;28;20131;-48
2022/01/24 14:32:09;;;;;;;13.02;5.75;;;8.80;99.90;;;;;;5052851;28;20040;-48
2022/01/24 14:34:35;;;;;;;9.48;4.53;;;8.70;99.90;;;;;;5072180;28;20108;-48
2022/01/24 14:37:05;;;;;;;12.77;5.63;;;8.70;99.90;;;;;;5070250;28;20107;-49
2022/01/24 14:39:31;;;;;;;16.38;5.30;;;8.70;99.90;;;;;;5068898;28;20459;-48
2022/01/24 14:41:57;;;;;;;12.18;5.82;;;8.70;99.90;;;;;;5072233;28;20036;-48
2022/01/24 14:47:08;;;;;;;6.90;3.75;;;8.70;99.90;;;;;;5068345;28;20393;-48
2022/01/24 14:49:41;;;;;;;9.88;4.18;;;8.80;99.90;;;;;;5067819;28;20037;-48
2022/01/24 14:52:11;;;;;;;15.80;5.88;;;8.70;99.90;;;;;;5067770;28;20112;-48
2022/01/24 14:54:39;;;;;;;11.00;5.05;;;8.70;99.90;;;;;;5070732;28;20028;-48
2022/01/24 14:57:08;;;;;;;12.80;5.53;;;8.70;99.90;;;;;;5069262;28;20362;-48
2022/01/24 14:59:36;;;;;;;10.52;5.70;;;8.70;99.90;;;;;;5067538;28;20039;-48